Time;durP1;ratioP1;P1;durP2;ratioP2;P2;SDS_P1;SDS_P2;PMS_P1;PMS_P2;Temp;Humidity;BMP_temperature;BMP_pressure;BME280_temperature;BME280_humidity;BME280_pressure;Samples;Min_cycle;Max_cycle;Signal;HPM_P1;HPM_P2
2024/01/08 00:02:26;;;;;;;12.70;7.50;;;;;;;-8.72;86.24;96788.69;109280;1272;98477;-78
2024/01/08 00:05:03;;;;;;;14.20;7.70;;;;;;;-8.71;86.35;96794.21;109365;1272;22517;-79
2024/01/08 00:07:37;;;;;;;14.70;8.10;;;;;;;-8.70;86.34;96796.76;109388;1269;24215;-79
2024/01/08 00:10:12;;;;;;;15.70;7.90;;;;;;;-8.69;86.24;96798.84;109351;1272;24933;-79
2024/01/08 00:12:45;;;;;;;14.30;8.30;;;;;;;-8.68;86.51;96796.38;109291;1266;34700;-79
2024/01/08 00:15:16;;;;;;;17.10;8.60;;;;;;;-8.68;86.41;96797.89;109384;1266;22560;-79
2024/01/08 00:17:49;;;;;;;15.10;7.30;;;;;;;-8.70;86.19;96800.84;109365;1272;22563;-79
2024/01/08 00:20:20;;;;;;;16.90;8.10;;;;;;;-8.74;86.12;96803.30;109351;1272;22521;-79
2024/01/08 00:22:54;;;;;;;15.10;8.50;;;;;;;-8.77;86.02;96801.20;109274;1272;56048;-79
2024/01/08 00:25:26;;;;;;;15.70;8.90;;;;;;;-8.75;86.07;96803.58;109314;1272;24840;-78
2024/01/08 00:27:58;;;;;;;17.30;9.20;;;;;;;-8.76;86.27;96804.45;109355;1272;22667;-79
2024/01/08 00:30:29;;;;;;;15.30;8.00;;;;;;;-8.76;86.03;96803.30;109365;1265;24199;-79
2024/01/08 00:33:05;;;;;;;16.10;8.50;;;;;;;-8.75;86.05;96803.88;110779;1271;41847;-79
2024/01/08 00:35:38;;;;;;;15.50;8.10;;;;;;;-8.74;86.29;96804.96;110782;1272;22143;-79
2024/01/08 00:38:15;;;;;;;17.50;9.30;;;;;;;-8.72;86.22;96806.86;110764;1271;22361;-79
2024/01/08 00:40:48;;;;;;;16.20;7.90;;;;;;;-8.72;86.10;96810.84;110763;1272;22223;-79
2024/01/08 00:43:29;;;;;;;15.00;8.00;;;;;;;-8.72;86.12;96813.73;110718;1265;42621;-79
2024/01/08 00:46:03;;;;;;;14.90;7.80;;;;;;;-8.71;85.98;96812.23;110784;1266;22304;-79
2024/01/08 00:48:35;;;;;;;14.10;7.30;;;;;;;-8.74;85.84;96812.83;110833;1266;23392;-79
2024/01/08 00:51:07;;;;;;;14.80;8.10;;;;;;;-8.73;85.80;96817.05;110769;1267;24894;-79
2024/01/08 00:53:38;;;;;;;18.00;8.50;;;;;;;-8.73;85.57;96819.05;109285;1266;42672;-79
2024/01/08 00:56:09;;;;;;;16.60;8.30;;;;;;;-8.73;85.45;96820.16;109395;1266;24235;-79
2024/01/08 00:58:44;;;;;;;17.80;8.90;;;;;;;-8.71;85.64;96821.87;109367;1272;22547;-79
2024/01/08 01:01:18;;;;;;;14.70;7.70;;;;;;;-8.71;85.73;96825.78;109280;1264;80742;-78
2024/01/08 01:03:52;;;;;;;16.90;8.30;;;;;;;-8.70;85.64;96831.54;109410;1272;22631;-78
2024/01/08 01:06:26;;;;;;;17.40;8.10;;;;;;;-8.71;85.60;96835.17;109366;1272;24476;-79
2024/01/08 01:08:59;;;;;;;14.40;8.10;;;;;;;-8.70;85.53;96834.72;110802;1272;23367;-79
2024/01/08 01:11:38;;;;;;;16.70;8.20;;;;;;;-8.72;85.50;96832.55;110718;1263;34872;-79
2024/01/08 01:14:10;;;;;;;16.80;8.30;;;;;;;-8.71;85.48;96830.95;110802;1264;22179;-79
2024/01/08 01:16:42;;;;;;;18.80;8.70;;;;;;;-8.73;85.19;96835.93;110754;1269;22926;-79
2024/01/08 01:19:14;;;;;;;16.00;8.10;;;;;;;-8.73;85.44;96832.50;110761;1266;22207;-79
2024/01/08 01:21:47;;;;;;;14.30;7.90;;;;;;;-8.70;85.28;96836.48;110739;1265;35788;-79
2024/01/08 01:24:23;;;;;;;14.70;8.40;;;;;;;-8.74;85.35;96838.05;110780;1271;22981;-79
2024/01/08 01:26:57;;;;;;;18.20;8.60;;;;;;;-8.77;85.25;96840.38;109641;1272;22555;-79
2024/01/08 01:29:30;;;;;;;17.80;9.80;;;;;;;-8.72;85.52;96841.13;109380;1272;22552;-79
2024/01/08 01:32:06;;;;;;;18.40;9.50;;;;;;;-8.69;85.34;96841.30;109319;1266;31564;-79
2024/01/08 01:34:38;;;;;;;18.10;9.70;;;;;;;-8.66;85.31;96843.50;109348;1271;23609;-79
2024/01/08 01:37:11;;;;;;;16.30;8.00;;;;;;;-8.70;85.02;96840.59;109323;1272;23816;-79
2024/01/08 01:39:44;;;;;;;16.80;8.10;;;;;;;-8.69;85.54;96844.26;109310;1269;22598;-78
2024/01/08 01:42:16;;;;;;;16.40;8.40;;;;;;;-8.68;85.38;96844.84;109334;1266;54242;-78
2024/01/08 01:44:47;;;;;;;19.40;8.90;;;;;;;-8.69;85.31;96847.98;109339;1266;22568;-78
2024/01/08 01:47:19;;;;;;;17.10;8.50;;;;;;;-8.68;85.46;96851.36;109386;1266;22577;-79
2024/01/08 01:49:55;;;;;;;16.50;8.90;;;;;;;-8.69;85.39;96853.33;110764;1266;22174;-79
2024/01/08 01:52:28;;;;;;;17.70;8.10;;;;;;;-8.72;85.37;96855.70;110740;1266;36820;-79
2024/01/08 01:55:03;;;;;;;17.30;8.60;;;;;;;-8.75;85.30;96854.39;110774;1271;22949;-79
2024/01/08 01:57:36;;;;;;;17.70;9.60;;;;;;;-8.76;85.27;96856.09;110744;1271;22663;-79
2024/01/08 02:00:11;;;;;;;16.00;8.80;;;;;;;-8.77;85.22;96859.39;110757;1269;22355;-79
2024/01/08 02:02:45;;;;;;;16.10;9.30;;;;;;;-8.80;85.09;96861.09;110200;1272;54097;-79
2024/01/08 02:05:18;;;;;;;16.30;8.90;;;;;;;-8.85;85.12;96861.83;109362;1272;22511;-79
2024/01/08 02:07:50;;;;;;;15.90;8.60;;;;;;;-8.87;85.18;96866.09;109367;1268;23948;-79
2024/01/08 02:10:33;;;;;;;16.10;9.00;;;;;;;-8.88;85.11;96868.89;109337;1272;23257;-79
2024/01/08 02:13:07;;;;;;;15.90;8.90;;;;;;;-8.92;84.77;96869.80;110139;1271;81961;-79
2024/01/08 02:15:38;;;;;;;18.10;8.80;;;;;;;-9.04;84.75;96874.62;109381;1266;22471;-79
2024/01/08 02:18:09;;;;;;;14.00;8.20;;;;;;;-9.09;84.76;96879.02;109377;1271;22452;-79
2024/01/08 02:20:41;;;;;;;17.90;9.60;;;;;;;-9.10;84.69;96878.60;109396;1266;23687;-79
2024/01/08 02:23:12;;;;;;;15.80;9.30;;;;;;;-9.11;84.97;96879.88;109263;1272;89315;-79
2024/01/08 02:25:43;;;;;;;18.90;8.80;;;;;;;-9.14;84.80;96882.94;109339;1249;22517;-79
2024/01/08 02:28:14;;;;;;;18.30;10.50;;;;;;;-9.19;84.79;96883.11;109327;1266;22566;-79
2024/01/08 02:30:45;;;;;;;15.80;9.00;;;;;;;-9.26;84.66;96885.15;109347;1272;22517;-79
2024/01/08 02:33:19;;;;;;;16.70;9.40;;;;;;;-9.25;84.85;96888.46;109324;1269;54827;-79
2024/01/08 02:35:50;;;;;;;19.50;9.70;;;;;;;-9.24;84.87;96890.72;109316;1266;24177;-79
2024/01/08 02:38:24;;;;;;;15.10;9.50;;;;;;;-9.28;84.66;96888.89;109321;1271;22564;-79
2024/01/08 02:40:57;;;;;;;14.90;8.50;;;;;;;-9.31;84.69;96892.39;109341;1272;22490;-79
2024/01/08 02:43:28;;;;;;;15.80;7.90;;;;;;;-9.30;84.83;96892.38;109308;1271;36540;-79
2024/01/08 02:45:59;;;;;;;13.80;7.70;;;;;;;-9.32;84.57;96896.45;109376;1272;23390;-79
2024/01/08 02:48:30;;;;;;;16.20;9.20;;;;;;;-9.36;84.54;96899.63;109364;1266;22524;-79
2024/01/08 02:51:05;;;;;;;16.20;9.70;;;;;;;-9.37;84.63;96902.98;109346;1265;23301;-79
2024/01/08 02:53:36;;;;;;;15.50;8.20;;;;;;;-9.32;84.85;96906.88;109344;1266;30676;-79
2024/01/08 02:56:08;;;;;;;13.80;7.60;;;;;;;-9.29;84.73;96909.00;109340;1272;23002;-79
2024/01/08 02:58:41;;;;;;;14.60;7.90;;;;;;;-9.30;84.59;96909.84;109376;1260;25232;-79
2024/01/08 03:01:12;;;;;;;14.20;7.80;;;;;;;-9.25;84.80;96911.38;109325;1271;22536;-79
2024/01/08 03:03:43;;;;;;;14.10;7.50;;;;;;;-9.21;84.78;96913.39;109255;1256;22497;-79
2024/01/08 03:06:15;;;;;;;15.00;7.60;;;;;;;-9.17;84.70;96915.27;109237;1272;22537;-79
2024/01/08 03:08:46;;;;;;;15.60;8.50;;;;;;;-9.13;84.70;96915.70;109260;1272;22515;-79
2024/01/08 03:11:17;;;;;;;15.90;7.60;;;;;;;-9.13;84.63;96916.36;109226;1268;22517;-79
2024/01/08 03:13:48;;;;;;;16.20;8.50;;;;;;;-9.18;84.32;96915.31;109259;1272;22596;-79
2024/01/08 03:16:19;;;;;;;17.20;8.30;;;;;;;-9.21;84.21;96922.28;109271;1273;22534;-79
2024/01/08 03:18:50;;;;;;;14.80;8.30;;;;;;;-9.19;84.46;96923.16;109227;1273;24163;-79
2024/01/08 03:21:23;;;;;;;13.80;7.80;;;;;;;-9.18;84.30;96925.09;109184;1265;83669;-79
2024/01/08 03:23:57;;;;;;;15.30;7.90;;;;;;;-9.21;84.55;96925.61;109334;1272;22558;-79
2024/01/08 03:26:28;;;;;;;15.40;8.20;;;;;;;-9.19;84.51;96928.64;109272;1271;22571;-79
2024/01/08 03:29:03;;;;;;;15.00;8.00;;;;;;;-9.15;84.44;96931.50;109233;1268;22584;-79
2024/01/08 03:31:43;;;;;;;15.30;8.50;;;;;;;-9.13;84.56;96927.89;109301;1272;51507;-79
2024/01/08 03:34:15;;;;;;;15.20;7.70;;;;;;;-9.10;84.70;96927.45;109303;1266;25420;-79
2024/01/08 03:36:48;;;;;;;12.50;7.30;;;;;;;-9.14;84.26;96934.13;109330;1266;23772;-79
2024/01/08 03:39:28;;;;;;;14.90;7.30;;;;;;;-9.13;84.42;96930.61;109313;1269;23308;-79
2024/01/08 03:42:02;;;;;;;16.60;8.40;;;;;;;-9.18;84.25;96934.43;109320;1251;46711;-79
2024/01/08 03:44:33;;;;;;;15.50;8.30;;;;;;;-9.18;84.20;96935.49;109311;1272;22528;-79
2024/01/08 03:47:06;;;;;;;18.00;8.90;;;;;;;-9.14;84.38;96937.89;109345;1272;25451;-79
2024/01/08 03:49:37;;;;;;;17.40;8.30;;;;;;;-9.11;84.26;96942.75;109329;1266;23856;-79
2024/01/08 03:52:08;;;;;;;16.40;7.80;;;;;;;-9.12;84.25;96943.20;109278;1266;35389;-79
2024/01/08 03:54:39;;;;;;;15.70;8.10;;;;;;;-9.14;83.83;96943.20;109296;1272;22911;-79
2024/01/08 03:57:10;;;;;;;13.40;7.60;;;;;;;-9.19;84.17;96947.09;109316;1266;22534;-79
2024/01/08 03:59:46;;;;;;;15.60;8.10;;;;;;;-9.26;84.01;96953.41;109310;1269;22521;-79
2024/01/08 04:02:17;;;;;;;17.00;8.60;;;;;;;-9.28;84.03;96956.66;109245;1272;51390;-79
2024/01/08 04:04:49;;;;;;;15.50;8.40;;;;;;;-9.28;84.05;96955.70;109340;1251;22573;-79
2024/01/08 04:07:20;;;;;;;16.70;8.20;;;;;;;-9.32;83.90;96960.35;109299;1266;22515;-79
2024/01/08 04:09:59;;;;;;;13.70;7.40;;;;;;;-9.40;83.63;96966.07;109340;1272;22542;-79
2024/01/08 04:12:37;;;;;;;14.60;7.00;;;;;;;-9.42;83.64;96967.30;109316;1270;48035;-79
2024/01/08 04:15:11;;;;;;;13.90;8.50;;;;;;;-9.38;83.67;96974.20;109314;1272;23000;-79
2024/01/08 04:17:42;;;;;;;13.50;6.80;;;;;;;-9.35;83.89;96978.59;109310;1268;23817;-79
2024/01/08 04:20:14;;;;;;;15.10;8.50;;;;;;;-9.33;83.71;96982.16;109310;1272;23943;-79
2024/01/08 04:22:49;;;;;;;15.60;8.40;;;;;;;-9.34;83.94;96984.44;109276;1272;60221;-79
2024/01/08 04:25:22;;;;;;;15.10;7.50;;;;;;;-9.34;83.88;96987.65;110160;1266;22928;-79
2024/01/08 04:27:58;;;;;;;18.10;8.30;;;;;;;-9.32;83.95;96988.91;109340;1272;22556;-79
2024/01/08 04:30:31;;;;;;;18.90;8.30;;;;;;;-9.31;83.85;96992.90;109357;1266;22551;-79
2024/01/08 04:33:02;;;;;;;15.10;7.50;;;;;;;-9.31;83.84;96987.88;109365;1272;35227;-79
2024/01/08 04:35:34;;;;;;;15.80;7.20;;;;;;;-9.30;83.74;96990.95;109341;1265;22313;-79
2024/01/08 04:38:05;;;;;;;12.00;7.50;;;;;;;-9.35;83.58;96992.23;109333;1266;22514;-79
2024/01/08 04:40:36;;;;;;;15.30;8.10;;;;;;;-9.38;83.44;96990.81;109364;1269;22498;-79
2024/01/08 04:43:08;;;;;;;15.30;7.90;;;;;;;-9.35;83.67;96997.27;109293;1272;50937;-79
2024/01/08 04:45:39;;;;;;;10.70;6.50;;;;;;;-9.36;83.82;96999.89;109325;1272;22632;-80
2024/01/08 04:48:10;;;;;;;17.30;8.40;;;;;;;-9.39;83.72;97000.34;109362;1272;22531;-79
2024/01/08 04:50:44;;;;;;;16.50;8.50;;;;;;;-9.40;83.56;97002.84;109338;1272;22652;-79
2024/01/08 04:53:15;;;;;;;15.20;7.30;;;;;;;-9.40;83.55;97008.15;109341;1272;53406;-79
2024/01/08 04:55:46;;;;;;;14.70;8.20;;;;;;;-9.38;83.70;97009.18;109365;1272;24150;-79
2024/01/08 04:58:17;;;;;;;17.30;9.30;;;;;;;-9.39;83.50;97014.04;109324;1266;24213;-79
2024/01/08 05:00:49;;;;;;;14.80;7.90;;;;;;;-9.43;83.18;97014.05;109388;1266;25373;-79
2024/01/08 05:03:22;;;;;;;14.80;7.80;;;;;;;-9.44;83.41;97021.53;109267;1268;50366;-79
2024/01/08 05:05:55;;;;;;;17.60;9.00;;;;;;;-9.50;83.12;97020.94;109407;1264;22537;-79
2024/01/08 05:08:26;;;;;;;14.90;7.60;;;;;;;-9.55;83.18;97030.31;109369;1250;23278;-79
2024/01/08 05:10:58;;;;;;;17.50;9.10;;;;;;;-9.61;83.13;97030.42;109368;1272;25425;-80
2024/01/08 05:13:31;;;;;;;17.40;8.70;;;;;;;-9.63;83.07;97027.23;109275;1271;64187;-79
2024/01/08 05:16:02;;;;;;;15.40;8.30;;;;;;;-9.63;83.09;97035.63;109345;1272;22544;-79
2024/01/08 05:18:34;;;;;;;16.80;9.00;;;;;;;-9.65;83.39;97040.55;109328;1269;22559;-79
2024/01/08 05:21:07;;;;;;;18.30;9.60;;;;;;;-9.65;83.02;97035.45;109401;1266;22520;-79
2024/01/08 05:23:39;;;;;;;15.10;8.10;;;;;;;-9.66;83.16;97036.19;109290;1266;58416;-79
2024/01/08 05:26:10;;;;;;;18.80;8.90;;;;;;;-9.69;82.99;97037.85;109359;1271;22531;-79
2024/01/08 05:28:41;;;;;;;17.80;9.20;;;;;;;-9.69;83.34;97041.09;109362;1266;22563;-79
2024/01/08 05:31:12;;;;;;;15.50;8.90;;;;;;;-9.64;83.20;97046.81;109361;1269;22554;-79
2024/01/08 05:33:43;;;;;;;14.80;9.00;;;;;;;-9.63;83.23;97049.23;109296;1271;36110;-79
2024/01/08 05:36:14;;;;;;;17.90;9.20;;;;;;;-9.63;83.18;97052.72;109342;1266;23031;-79
2024/01/08 05:38:47;;;;;;;19.90;10.20;;;;;;;-9.70;82.90;97053.89;109287;1250;22701;-79
2024/01/08 05:41:20;;;;;;;19.00;10.50;;;;;;;-9.75;82.93;97059.59;109302;1271;22670;-79
2024/01/08 05:43:51;;;;;;;22.80;10.40;;;;;;;-9.71;83.28;97058.94;109383;1269;22472;-79
2024/01/08 05:46:31;;;;;;;19.90;10.40;;;;;;;-9.71;83.29;97057.22;109323;1271;23257;-79
2024/01/08 05:49:03;;;;;;;15.00;8.30;;;;;;;-9.67;83.16;97064.33;109279;1272;22538;-79
2024/01/08 05:51:37;;;;;;;19.60;10.10;;;;;;;-9.64;83.22;97066.31;109265;1266;61317;-79
2024/01/08 05:54:08;;;;;;;17.40;8.70;;;;;;;-9.65;83.51;97064.70;109330;1272;22621;-79
2024/01/08 05:56:40;;;;;;;16.80;9.50;;;;;;;-9.74;83.35;97066.39;109349;1272;22536;-79
2024/01/08 05:59:11;;;;;;;13.90;7.70;;;;;;;-9.79;83.01;97071.14;109322;1272;22624;-79
2024/01/08 06:01:44;;;;;;;14.30;8.20;;;;;;;-9.83;82.82;97075.30;109262;1271;93695;-79
2024/01/08 06:04:16;;;;;;;15.20;8.10;;;;;;;-9.85;83.11;97082.59;109358;1272;22482;-79
2024/01/08 06:06:49;;;;;;;13.70;8.50;;;;;;;-9.89;82.71;97089.93;109322;1272;22564;-79
2024/01/08 06:09:21;;;;;;;13.60;8.00;;;;;;;-9.95;82.87;97098.56;109349;1272;22526;-79
2024/01/08 06:11:56;;;;;;;16.10;8.50;;;;;;;-9.96;82.99;97103.40;109304;1269;46159;-79
2024/01/08 06:14:32;;;;;;;16.80;8.80;;;;;;;-10.02;82.71;97106.50;109292;1270;22545;-79
2024/01/08 06:17:06;;;;;;;17.40;9.00;;;;;;;-10.06;82.69;97109.11;109294;1252;22542;-79
2024/01/08 06:19:37;;;;;;;15.50;8.10;;;;;;;-10.11;82.69;97113.20;109328;1269;22538;-79
2024/01/08 06:22:09;;;;;;;15.50;8.40;;;;;;;-10.12;82.77;97118.23;109260;1264;69664;-79
2024/01/08 06:24:40;;;;;;;17.50;9.00;;;;;;;-10.15;82.57;97118.63;109323;1272;22585;-79
2024/01/08 06:27:11;;;;;;;13.70;7.80;;;;;;;-10.17;82.72;97121.38;109331;1269;22544;-79
2024/01/08 06:29:42;;;;;;;13.60;8.60;;;;;;;-10.14;83.05;97122.48;109370;1272;22521;-79
2024/01/08 06:32:16;;;;;;;15.40;8.10;;;;;;;-10.15;82.61;97128.54;109318;1269;46621;-79
2024/01/08 06:34:47;;;;;;;17.70;9.40;;;;;;;-10.11;82.76;97128.36;109291;1272;23988;-79
2024/01/08 06:37:18;;;;;;;16.00;8.60;;;;;;;-10.06;82.98;97133.61;109330;1272;25450;-79
2024/01/08 06:39:49;;;;;;;14.60;8.80;;;;;;;-10.04;83.05;97135.83;109321;1260;22674;-79
2024/01/08 06:42:20;;;;;;;13.70;7.70;;;;;;;-10.00;82.93;97141.93;109289;1249;28851;-79
2024/01/08 06:44:51;;;;;;;15.30;8.60;;;;;;;-9.97;82.80;97144.39;109342;1266;22559;-79
2024/01/08 06:47:25;;;;;;;12.50;7.40;;;;;;;-10.01;82.80;97147.85;109283;1269;22525;-79
2024/01/08 06:49:58;;;;;;;15.40;8.10;;;;;;;-10.02;82.76;97147.23;109331;1272;22998;-79
2024/01/08 06:52:29;;;;;;;15.50;8.70;;;;;;;-9.97;82.96;97151.62;109327;1269;42202;-79
2024/01/08 06:55:02;;;;;;;15.70;8.30;;;;;;;-9.87;83.03;97155.13;109271;1272;22548;-79
2024/01/08 06:57:36;;;;;;;13.40;7.90;;;;;;;-9.77;83.40;97155.95;109339;1271;22462;-79
2024/01/08 07:00:09;;;;;;;14.80;8.10;;;;;;;-9.73;83.31;97155.52;109289;1249;22616;-80
2024/01/08 07:02:40;;;;;;;15.40;8.00;;;;;;;-9.69;83.01;97158.77;109221;1257;45691;-79
2024/01/08 07:05:15;;;;;;;13.90;8.10;;;;;;;-9.64;83.23;97166.16;109338;1269;22516;-79
2024/01/08 07:07:46;;;;;;;15.90;9.20;;;;;;;-9.69;82.82;97165.27;109365;1272;22561;-79
2024/01/08 07:10:17;;;;;;;18.90;9.00;;;;;;;-9.69;82.72;97168.75;109341;1271;22454;-79
2024/01/08 07:12:50;;;;;;;15.60;8.90;;;;;;;-9.64;83.04;97172.64;109286;1266;43251;-79
2024/01/08 07:15:41;;;;;;;14.10;7.60;;;;;;;-9.59;82.87;97170.65;109304;1272;24364;-80
2024/01/08 07:18:12;;;;;;;19.80;10.00;;;;;;;-9.64;82.75;97174.27;110606;1272;22561;-80
2024/01/08 07:20:44;;;;;;;16.40;9.20;;;;;;;-9.72;82.84;97181.77;109354;1272;22550;-79
2024/01/08 07:23:16;;;;;;;16.70;9.10;;;;;;;-9.80;82.41;97197.78;109298;1272;35410;-79
2024/01/08 07:25:47;;;;;;;17.00;9.60;;;;;;;-9.95;82.63;97196.50;109347;1269;22593;-79
2024/01/08 07:28:18;;;;;;;15.30;8.30;;;;;;;-9.96;82.85;97197.50;109371;1271;22521;-80
2024/01/08 07:30:49;;;;;;;19.20;9.30;;;;;;;-9.96;82.92;97202.27;109366;1272;22473;-79
2024/01/08 07:33:21;;;;;;;18.90;10.40;;;;;;;-9.94;82.71;97205.14;109293;1267;30765;-79
2024/01/08 07:35:56;;;;;;;18.40;9.40;;;;;;;-9.87;83.18;97212.70;109323;1272;23153;-79
2024/01/08 07:38:30;;;;;;;16.30;9.50;;;;;;;-9.81;83.19;97215.09;109374;1272;22529;-79
2024/01/08 07:41:07;;;;;;;19.40;10.20;;;;;;;-9.75;82.99;97214.76;109295;1269;22947;-79
2024/01/08 07:43:39;;;;;;;17.90;10.50;;;;;;;-9.72;83.08;97220.79;109301;1266;33326;-79
2024/01/08 07:46:10;;;;;;;18.40;9.90;;;;;;;-9.67;83.28;97220.19;109341;1269;25492;-79
2024/01/08 07:48:41;;;;;;;17.30;9.70;;;;;;;-9.58;83.36;97226.73;109360;1272;22542;-80
2024/01/08 07:51:12;;;;;;;18.70;9.90;;;;;;;-9.57;82.94;97227.98;109336;1272;22552;-79
2024/01/08 07:53:46;;;;;;;16.40;9.10;;;;;;;-9.52;82.93;97232.02;109287;1268;44864;-79
2024/01/08 07:56:17;;;;;;;17.50;8.50;;;;;;;-9.45;83.18;97236.38;109326;1266;22518;-79
2024/01/08 07:58:48;;;;;;;17.00;9.10;;;;;;;-9.44;83.04;97237.48;109347;1272;22517;-78
2024/01/08 08:01:26;;;;;;;15.30;9.30;;;;;;;-9.42;82.88;97241.02;109319;1266;24241;-78
2024/01/08 08:03:58;;;;;;;18.00;9.40;;;;;;;-9.38;82.77;97244.59;109331;1269;22784;-78
2024/01/08 08:06:30;;;;;;;17.40;9.60;;;;;;;-9.34;82.84;97245.92;109274;1266;22544;-78
2024/01/08 08:09:05;;;;;;;17.30;9.30;;;;;;;-9.33;82.59;97250.29;109265;1272;22962;-78
2024/01/08 08:11:37;;;;;;;21.20;12.50;;;;;;;-9.31;82.73;97254.58;109238;1270;98636;-79
2024/01/08 08:14:08;;;;;;;21.90;12.40;;;;;;;-9.28;82.74;97256.05;110711;1269;22250;-78
2024/01/08 08:16:40;;;;;;;16.80;9.90;;;;;;;-9.26;82.67;97258.75;110735;1272;22201;-79
2024/01/08 08:19:13;;;;;;;17.30;9.10;;;;;;;-9.26;82.49;97264.21;110721;1271;22351;-79
2024/01/08 08:21:44;;;;;;;18.10;8.60;;;;;;;-9.27;82.31;97257.86;110483;1262;45460;-79
2024/01/08 08:24:16;;;;;;;17.50;10.10;;;;;;;-9.27;82.37;97265.84;109322;1271;23368;-78
2024/01/08 08:26:49;;;;;;;18.10;9.80;;;;;;;-9.31;82.18;97264.26;109302;1262;22551;-78
2024/01/08 08:29:21;;;;;;;14.90;8.30;;;;;;;-9.31;82.07;97271.48;109345;1272;22527;-79
2024/01/08 08:31:56;;;;;;;15.40;8.10;;;;;;;-9.28;81.95;97277.91;109277;1272;55241;-78
2024/01/08 08:34:27;;;;;;;16.40;8.50;;;;;;;-9.22;82.01;97284.41;109327;1272;24103;-78
2024/01/08 08:36:59;;;;;;;16.30;9.00;;;;;;;-9.11;81.96;97292.48;109320;1269;22621;-78
2024/01/08 08:39:32;;;;;;;17.10;9.00;;;;;;;-8.91;81.86;97290.82;109281;1272;22773;-78
2024/01/08 08:42:07;;;;;;;15.40;8.50;;;;;;;-8.69;81.66;97293.10;109267;1269;73356;-78
2024/01/08 08:44:38;;;;;;;17.10;8.30;;;;;;;-8.44;82.11;97296.41;109299;1269;22525;-78
2024/01/08 08:47:10;;;;;;;18.30;8.60;;;;;;;-8.21;82.13;97299.59;109319;1269;22482;-78
2024/01/08 08:49:42;;;;;;;18.30;9.60;;;;;;;-8.05;81.86;97303.48;109386;1272;22482;-78
2024/01/08 08:52:13;;;;;;;16.80;9.70;;;;;;;-7.98;81.60;97303.49;109224;1266;79649;-78
2024/01/08 08:54:44;;;;;;;17.40;9.40;;;;;;;-7.96;81.17;97308.14;109355;1269;23314;-78
2024/01/08 08:57:20;;;;;;;17.30;9.70;;;;;;;-7.87;81.24;97315.13;109340;1272;22579;-78
2024/01/08 08:59:58;;;;;;;17.90;9.30;;;;;;;-7.88;80.86;97317.65;109314;1266;24927;-78
2024/01/08 09:02:29;;;;;;;16.40;10.20;;;;;;;-7.86;80.91;97321.40;109251;1257;81116;-78
2024/01/08 09:05:00;;;;;;;14.90;9.70;;;;;;;-7.82;80.61;97318.99;109334;1269;25428;-78
2024/01/08 09:07:33;;;;;;;16.50;9.90;;;;;;;-7.78;80.56;97321.69;109324;1272;22530;-78
2024/01/08 09:10:05;;;;;;;18.80;10.30;;;;;;;-7.87;80.14;97322.85;109304;1272;22559;-78
2024/01/08 09:12:40;;;;;;;17.20;10.00;;;;;;;-7.83;80.38;97319.92;110526;1272;62997;-79
2024/01/08 09:15:12;;;;;;;14.80;8.60;;;;;;;-7.68;80.39;97324.05;109323;1272;24616;-78
2024/01/08 09:17:43;;;;;;;18.00;10.90;;;;;;;-7.75;80.46;97324.63;109351;1269;22517;-78
2024/01/08 09:20:14;;;;;;;21.10;11.60;;;;;;;-7.81;80.01;97325.23;109317;1269;23753;-78
2024/01/08 09:22:48;;;;;;;20.80;10.50;;;;;;;-7.74;80.52;97326.69;109286;1271;55970;-78
2024/01/08 09:25:20;;;;;;;20.60;11.40;;;;;;;-7.71;80.09;97325.19;109261;1263;22538;-78
2024/01/08 09:27:53;;;;;;;17.30;11.50;;;;;;;-7.72;79.89;97329.45;109332;1272;22556;-78
2024/01/08 09:30:29;;;;;;;17.30;10.90;;;;;;;-7.70;79.89;97331.76;109334;1266;22546;-78
2024/01/08 09:33:02;;;;;;;19.10;10.50;;;;;;;-7.60;79.47;97334.27;109257;1269;70896;-78
2024/01/08 09:35:36;;;;;;;22.00;11.80;;;;;;;-7.57;79.58;97330.66;110725;1266;22422;-79
2024/01/08 09:38:09;;;;;;;18.40;10.90;;;;;;;-7.61;79.48;97332.15;110740;1272;22360;-79
2024/01/08 09:40:45;;;;;;;18.30;10.70;;;;;;;-7.65;79.44;97338.27;110728;1266;22379;-79
2024/01/08 09:43:19;;;;;;;19.60;11.40;;;;;;;-7.64;79.67;97340.46;108210;1272;2029166;-78
2024/01/08 09:46:05;;;;;;;19.30;11.40;;;;;;;-7.65;79.16;97338.98;110717;1267;23004;-79
2024/01/08 09:48:40;;;;;;;20.60;10.50;;;;;;;-7.70;79.22;97334.30;110714;1272;22357;-79
2024/01/08 09:51:12;;;;;;;19.70;10.10;;;;;;;-7.73;79.23;97335.52;110734;1272;23066;-79
2024/01/08 09:53:45;;;;;;;15.40;9.60;;;;;;;-7.77;78.99;97336.02;110708;1272;46303;-79
2024/01/08 09:56:20;;;;;;;18.70;9.90;;;;;;;-7.78;78.84;97341.06;110761;1269;22313;-79
2024/01/08 09:58:53;;;;;;;19.20;10.00;;;;;;;-7.82;78.99;97343.99;110732;1272;23214;-79
2024/01/08 10:01:26;;;;;;;17.10;9.20;;;;;;;-7.83;79.04;97339.54;110704;1271;23474;-79
2024/01/08 10:04:00;;;;;;;16.50;9.20;;;;;;;-7.83;79.02;97340.83;110605;1269;22205;-79
2024/01/08 10:06:42;;;;;;;16.80;9.10;;;;;;;-7.72;79.29;97337.75;110566;1273;22368;-79
2024/01/08 10:09:14;;;;;;;15.10;8.60;;;;;;;-7.88;78.84;97343.79;110609;1273;22180;-79
2024/01/08 10:11:47;;;;;;;23.20;11.20;;;;;;;-8.09;78.73;97339.73;110572;1266;61376;-79
2024/01/08 10:14:18;;;;;;;18.90;10.30;;;;;;;-8.42;78.59;97345.05;109775;1267;22462;-79
2024/01/08 10:16:50;;;;;;;17.60;10.80;;;;;;;-8.54;78.89;97345.45;109304;1268;24301;-79
2024/01/08 10:19:24;;;;;;;18.20;9.70;;;;;;;-8.63;78.91;97349.73;109328;1272;22640;-79
2024/01/08 10:22:11;;;;;;;19.00;10.90;;;;;;;-8.79;78.84;97346.77;109274;1266;42676;-79
2024/01/08 10:24:43;;;;;;;18.30;10.70;;;;;;;-8.79;79.05;97346.20;109323;1272;22559;-79
2024/01/08 10:27:16;;;;;;;18.30;10.40;;;;;;;-8.54;80.01;97346.67;109314;1272;22600;-79
2024/01/08 10:29:48;;;;;;;16.30;11.40;;;;;;;-8.33;80.16;97344.44;110725;1271;22523;-79
2024/01/08 10:32:26;;;;;;;16.20;10.20;;;;;;;-8.16;79.67;97345.54;110635;1272;54117;-79
2024/01/08 10:35:00;;;;;;;16.40;10.00;;;;;;;-8.01;79.86;97346.55;110735;1269;23069;-79
2024/01/08 10:37:35;;;;;;;17.20;9.80;;;;;;;-7.90;79.47;97350.14;110684;1270;22270;-79
2024/01/08 10:40:15;;;;;;;18.00;9.20;;;;;;;-7.80;79.44;97347.23;110752;1272;22293;-79
2024/01/08 10:42:47;;;;;;;16.80;8.90;;;;;;;-7.49;79.64;97348.90;110522;1269;36909;-79
2024/01/08 10:45:18;;;;;;;16.00;10.00;;;;;;;-7.16;79.60;97349.70;110499;1266;316358;-79
2024/01/08 10:47:57;;;;;;;18.60;10.40;;;;;;;-7.20;78.52;97354.89;110728;1262;22221;-79
2024/01/08 10:50:32;;;;;;;14.50;9.10;;;;;;;-7.32;78.71;97350.44;109312;1270;22541;-79
2024/01/08 10:53:04;;;;;;;16.00;8.90;;;;;;;-7.05;78.95;97353.45;109262;1269;48936;-78
2024/01/08 10:55:40;;;;;;;19.10;10.50;;;;;;;-6.88;78.84;97354.38;109354;1267;22593;-79
2024/01/08 10:58:27;;;;;;;15.80;9.70;;;;;;;-6.78;78.44;97352.66;109300;1272;22518;-78
2024/01/08 11:00:59;;;;;;;19.30;9.70;;;;;;;-7.06;77.81;97350.79;110706;1269;22768;-79
2024/01/08 11:03:35;;;;;;;16.80;9.90;;;;;;;-7.54;77.10;97349.11;110654;1272;95920;-79
2024/01/08 11:06:09;;;;;;;17.00;9.40;;;;;;;-7.70;76.99;97349.42;110714;1272;22133;-78
2024/01/08 11:08:44;;;;;;;15.10;9.60;;;;;;;-7.90;76.62;97350.35;110713;1272;22165;-79
2024/01/08 11:11:18;;;;;;;20.00;11.10;;;;;;;-8.23;75.97;97349.49;110704;1272;22346;-79
2024/01/08 11:13:49;;;;;;;16.80;10.20;;;;;;;-8.26;76.33;97350.27;110655;1272;80199;-79
2024/01/08 11:16:40;;;;;;;18.30;10.00;;;;;;;-8.18;76.45;97353.27;110714;1272;22329;-78
2024/01/08 11:19:29;;;;;;;16.60;9.50;;;;;;;-8.43;75.53;97356.48;110715;1272;22275;-79
2024/01/08 11:22:15;;;;;;;14.20;8.60;;;;;;;-8.47;75.78;97366.04;110645;1268;73773;-80
2024/01/08 11:24:49;;;;;;;20.30;10.70;;;;;;;-8.40;76.10;97367.20;110750;1270;22194;-79
2024/01/08 11:27:26;;;;;;;18.40;10.00;;;;;;;-8.33;76.05;97367.05;110532;1272;23405;-79
2024/01/08 11:30:01;;;;;;;16.00;10.10;;;;;;;-8.38;75.62;97370.02;109343;1269;22647;-79
2024/01/08 11:33:12;;;;;;;17.40;8.90;;;;;;;-8.66;74.60;97368.39;109220;1272;82915;-79
2024/01/08 11:35:59;;;;;;;13.40;7.80;;;;;;;-8.86;75.21;97369.02;109311;1270;23035;-79
2024/01/08 11:38:36;;;;;;;16.30;9.20;;;;;;;-8.92;74.91;97369.90;110735;1272;23231;-79
2024/01/08 11:41:07;;;;;;;14.20;8.90;;;;;;;-9.08;74.69;97373.86;109398;1272;25297;-79
2024/01/08 11:43:41;;;;;;;14.60;8.10;;;;;;;-9.02;74.80;97380.11;109175;1272;73237;-79